Time;durP1;ratioP1;P1;durP2;ratioP2;P2;SDS_P1;SDS_P2;PMS_P1;PMS_P2;Temp;Humidity;BMP_temperature;BMP_pressure;BME280_temperature;BME280_humidity;BME280_pressure;Samples;Min_cycle;Max_cycle;Signal;HPM_P1;HPM_P2
2022/03/21 00:01:42;;;;;;;22.75;16.65;;;;;;;10.25;41.99;102966.97;4827923;23;120421;-87
2022/03/21 00:13:57;;;;;;;22.38;17.27;;;;;;;10.06;42.43;102946.16;4906650;23;120843;-87
2022/03/21 00:16:34;;;;;;;23.83;16.80;;;;;;;10.02;41.90;102937.16;4799446;29;123227;-86
2022/03/21 00:41:53;;;;;;;23.48;17.08;;;;;;;9.83;41.48;102930.88;4830940;28;118560;-88
2022/03/21 00:52:48;;;;;;;23.05;17.27;;;;;;;9.93;41.70;102953.19;5050836;23;120020;-88
2022/03/21 01:02:46;;;;;;;27.10;17.92;;;;;;;9.58;41.99;102901.88;4861472;23;119615;-87
2022/03/21 01:05:20;;;;;;;26.10;18.38;;;;;;;10.02;41.60;102970.84;4819494;28;119340;-86
2022/03/21 01:07:55;;;;;;;26.15;18.75;;;;;;;10.02;41.87;102968.09;5027621;23;121128;-85
2022/03/21 01:15:17;;;;;;;25.27;18.27;;;;;;;9.87;42.50;102957.50;5150236;23;120349;-86
2022/03/21 01:18:27;;;;;;;;;;;;;;;;;;;;;
2022/03/21 01:21:04;;;;;;;26.02;18.13;;;;;;;9.94;41.99;102960.25;4937596;23;121891;-87
2022/03/21 01:32:02;;;;;;;27.73;18.85;;;;;;;9.44;42.39;102883.44;4834961;23;118924;-87
2022/03/21 01:34:35;;;;;;;25.30;18.30;;;;;;;9.65;42.83;102919.09;4786563;29;120233;-86
2022/03/21 01:41:19;;;;;;;28.50;19.00;;;;;;;9.43;42.66;102881.88;4827719;28;119031;-88
2022/03/21 01:44:02;;;;;;;25.98;18.35;;;;;;;9.54;42.27;102902.66;4809994;28;120003;-87
2022/03/21 02:04:11;;;;;;;26.75;19.27;;;;;;;9.29;42.72;102882.63;4820643;28;119210;-87
2022/03/21 02:07:04;;;;;;;23.67;18.77;;;;;;;9.72;43.04;102941.03;4761033;29;119421;-87
2022/03/21 02:09:43;;;;;;;24.15;18.38;;;;;;;9.36;43.59;102884.59;4807289;29;122900;-87
2022/03/21 02:12:21;;;;;;;25.50;19.17;;;;;;;9.70;43.51;102940.66;4844259;23;120749;31
2022/03/21 02:14:48;;;;;;;26.67;18.77;;;;;;;9.50;42.32;102910.06;4796494;29;119204;-87
2022/03/21 02:17:26;;;;;;;26.42;19.38;;;;;;;9.18;42.36;102865.38;4796518;29;122981;-88
2022/03/21 02:19:59;;;;;;;25.35;19.17;;;;;;;9.45;43.27;102909.66;4773165;29;119331;-87
2022/03/21 02:31:12;;;;;;;24.40;18.55;;;;;;;9.59;43.21;102937.09;4989464;23;120055;31
2022/03/21 02:33:42;;;;;;;24.83;18.63;;;;;;;9.17;43.41;102872.03;4908654;23;120299;-89
2022/03/21 02:45:24;;;;;;;26.50;18.50;;;;;;;9.53;43.29;102931.22;4850427;23;122020;31
2022/03/21 02:48:00;;;;;;;23.92;18.23;;;;;;;9.42;42.71;102922.16;4777499;29;121183;-88
2022/03/21 02:54:58;;;;;;;26.98;19.25;;;;;;;9.18;43.47;102890.81;4821861;29;118383;-86
2022/03/21 02:57:42;;;;;;;27.42;19.27;;;;;;;9.49;43.41;102935.13;4875394;23;120272;-87
2022/03/21 03:00:12;;;;;;;25.05;18.77;;;;;;;9.21;42.21;102889.25;4809009;29;121846;-87
2022/03/21 03:02:47;;;;;;;24.55;18.50;;;;;;;9.10;42.70;102870.06;4851516;23;121071;-88
2022/03/21 03:05:37;;;;;;;27.20;19.08;;;;;;;9.39;42.08;102908.47;4922085;23;5942861;-87
2022/03/21 03:12:40;;;;;;;24.50;18.98;;;;;;;9.00;42.00;102857.13;4842512;28;118321;-87
2022/03/21 03:15:41;;;;;;;25.52;18.15;;;;;;;9.23;41.02;102887.72;4874276;23;119606;-88
2022/03/21 03:22:53;;;;;;;27.77;19.40;;;;;;;8.91;41.86;102859.44;4917385;23;121115;-87
2022/03/21 03:25:19;;;;;;;25.98;18.77;;;;;;;9.06;41.17;102877.47;4797769;29;121247;-87
2022/03/21 03:27:57;;;;;;;26.75;17.95;;;;;;;9.10;41.36;102882.97;4979313;23;120015;-88
2022/03/21 03:33:27;;;;;;;24.40;17.40;;;;;;;9.10;40.93;102894.69;5183956;23;120591;-88
2022/03/21 03:35:58;;;;;;;25.23;18.55;;;;;;;8.92;41.47;102861.00;4917610;23;121610;-88
2022/03/21 03:41:45;;;;;;;25.20;17.95;;;;;;;9.36;41.52;102939.38;4834051;23;120159;31
2022/03/21 03:44:25;;;;;;;26.33;18.55;;;;;;;8.87;41.90;102870.38;4795388;29;119166;-88
2022/03/21 03:46:55;;;;;;;25.08;18.50;;;;;;;8.87;41.17;102861.38;4792014;29;123109;-88
2022/03/21 03:49:59;;;;;;;25.30;18.27;;;;;;;9.31;41.36;102929.59;4964372;23;120022;31
2022/03/21 03:52:58;;;;;;;24.42;17.88;;;;;;;9.28;42.58;102932.31;5070199;23;122858;31
2022/03/21 03:55:49;;;;;;;24.40;17.73;;;;;;;9.06;41.60;102898.59;4821093;29;120276;-87
2022/03/21 03:58:25;;;;;;;25.58;18.70;;;;;;;8.97;41.25;102879.78;4779080;29;119749;-87
2022/03/21 04:00:56;;;;;;;26.08;18.65;;;;;;;8.77;41.57;102857.44;4788574;29;119366;-87
2022/03/21 04:03:45;;;;;;;26.88;18.02;;;;;;;8.85;41.52;102877.41;4852955;23;120061;-87
2022/03/21 04:06:25;;;;;;;21.70;17.55;;;;;;;8.77;41.60;102864.88;4925562;23;120196;-86
2022/03/21 04:11:51;;;;;;;24.40;17.93;;;;;;;8.74;42.70;102860.91;4833303;29;119786;-87
2022/03/21 04:14:25;;;;;;;27.00;19.38;;;;;;;8.61;41.86;102852.28;4797911;29;120587;-88
2022/03/21 04:17:14;;;;;;;27.60;18.15;;;;;;;8.88;42.64;102901.25;4795950;29;119381;-88
2022/03/21 04:19:46;;;;;;;23.77;18.27;;;;;;;8.69;42.82;102876.94;4822661;29;119242;-87
2022/03/21 04:25:36;;;;;;;27.15;18.38;;;;;;;8.54;42.11;102851.47;4724719;29;119978;-88
2022/03/21 04:28:11;;;;;;;25.17;17.98;;;;;;;8.63;42.79;102886.69;4730498;29;121030;-88
2022/03/21 04:30:39;;;;;;;24.92;17.80;;;;;;;8.72;42.88;102895.31;4737583;29;119384;-88
2022/03/21 04:33:17;;;;;;;24.10;18.00;;;;;;;9.02;42.26;102939.66;4736530;29;119299;-88
2022/03/21 04:35:46;;;;;;;25.88;17.77;;;;;;;8.66;41.81;102894.91;4748119;29;119090;-87
2022/03/21 04:38:31;;;;;;;24.25;17.83;;;;;;;8.52;41.87;102868.25;4704722;29;118663;-88
2022/03/21 04:41:12;;;;;;;22.77;17.73;;;;;;;8.52;41.77;102876.47;4724439;29;119345;-88
2022/03/21 04:43:53;;;;;;;;;;;;;;;;;;;;;
2022/03/21 04:46:50;;;;;;;25.77;18.05;;;;;;;8.48;42.47;102859.22;4713871;29;119396;-88
2022/03/21 04:49:17;;;;;;;24.80;17.63;;;;;;;8.86;41.52;102904.38;4715600;29;119253;-88
2022/03/21 04:52:02;;;;;;;25.10;16.98;;;;;;;8.75;41.33;102895.31;4731084;29;120980;-88
2022/03/21 04:55:21;;;;;;;21.70;16.60;;;;;;;8.75;41.20;102878.13;4765925;29;119274;-87
2022/03/21 04:57:58;;;;;;;23.98;17.58;;;;;;;8.63;40.66;102849.16;4802782;29;120458;-88
2022/03/21 05:04:05;;;;;;;34.90;20.03;;;;;;;8.64;40.64;102875.34;4795849;29;119183;-88
2022/03/21 05:06:39;;;;;;;36.38;20.77;;;;;;;8.81;41.65;102910.22;4808828;29;120780;-87
2022/03/21 05:09:19;;;;;;;32.80;20.17;;;;;;;8.89;42.37;102927.47;4811115;29;119205;-88
2022/03/21 05:11:59;;;;;;;30.02;18.70;;;;;;;8.73;42.22;102908.59;4779419;29;118964;-88
2022/03/21 05:14:51;;;;;;;28.05;19.15;;;;;;;8.75;42.07;102916.44;4820193;29;119549;-87
2022/03/21 05:17:41;;;;;;;27.60;18.77;;;;;;;8.59;41.97;102886.66;4793866;29;119171;-88
2022/03/21 05:20:21;;;;;;;25.40;18.77;;;;;;;8.62;42.07;102885.88;4809150;29;118876;-87
2022/03/21 05:31:40;;;;;;;25.42;18.58;;;;;;;8.83;41.70;102901.63;4787398;29;118551;-87
2022/03/21 05:37:05;;;;;;;25.73;18.58;;;;;;;9.35;42.60;102967.94;4812794;23;121929;-87
2022/03/21 05:39:32;;;;;;;23.95;18.27;;;;;;;9.35;41.92;102966.00;4775782;29;118474;-87
2022/03/21 05:42:05;;;;;;;25.95;19.27;;;;;;;8.90;41.89;102891.50;4775405;29;122967;-87
2022/03/21 05:44:35;;;;;;;25.58;18.38;;;;;;;9.40;41.71;102970.31;4781682;29;120748;-87
2022/03/21 05:47:04;;;;;;;26.33;18.58;;;;;;;9.05;42.11;102918.94;4825463;29;119365;-87
2022/03/21 05:50:20;;;;;;;25.98;18.75;;;;;;;9.45;41.64;102970.72;5007303;23;119885;31
2022/03/21 05:52:51;;;;;;;24.35;18.63;;;;;;;9.20;41.91;102926.03;4856383;23;122595;-87
2022/03/21 05:55:20;;;;;;;26.40;18.15;;;;;;;9.50;41.76;102966.84;4813099;29;119421;-87
2022/03/21 05:58:00;;;;;;;25.10;19.23;;;;;;;9.10;42.32;102905.66;4822876;29;121515;-87
2022/03/21 06:00:35;;;;;;;26.98;18.88;;;;;;;9.46;41.80;102952.31;4859202;23;119251;-88
2022/03/21 06:03:11;;;;;;;24.45;18.05;;;;;;;9.56;41.21;102961.75;4812217;29;122318;-87
2022/03/21 06:05:48;;;;;;;24.13;18.30;;;;;;;9.63;41.52;102969.97;4825900;23;123123;-87
2022/03/21 06:11:26;;;;;;;28.52;19.10;;;;;;;9.20;41.45;102902.16;5020024;23;121568;-85
2022/03/21 06:13:59;;;;;;;26.83;18.55;;;;;;;9.38;42.00;102931.56;4812802;29;122672;-85
2022/03/21 06:16:33;;;;;;;23.48;17.50;;;;;;;9.59;41.33;102950.78;4824184;29;119266;-85
2022/03/21 06:19:05;;;;;;;22.98;17.58;;;;;;;9.45;41.04;102937.84;4792655;28;123360;-86
2022/03/21 06:21:36;;;;;;;26.60;18.40;;;;;;;9.37;41.63;102913.56;4792100;29;119047;-86
2022/03/21 06:24:06;;;;;;;26.60;17.08;;;;;;;9.45;40.84;102918.66;4839940;29;119684;-87
2022/03/21 06:26:51;;;;;;;23.98;17.40;;;;;;;9.67;41.24;102951.59;4829650;28;122224;-85
2022/03/21 06:29:41;;;;;;;25.40;17.88;;;;;;;9.69;40.86;102935.53;4843324;29;118444;-84
2022/03/21 06:32:33;;;;;;;26.70;17.95;;;;;;;9.85;41.12;102944.19;4844439;29;118371;-87
2022/03/21 06:37:57;;;;;;;21.30;17.40;;;;;;;10.10;40.04;102966.13;5005039;23;119297;-88
2022/03/21 06:40:26;;;;;;;24.30;18.13;;;;;;;10.04;40.21;102934.78;4810534;29;120139;-88
2022/03/21 06:42:56;;;;;;;23.13;17.20;;;;;;;10.03;40.20;102912.06;4793841;29;118599;-89
2022/03/21 06:45:32;;;;;;;32.67;17.90;;;;;;;10.23;39.98;102941.88;4770804;29;121835;-89
2022/03/21 06:48:00;;;;;;;24.17;17.27;;;;;;;10.34;40.03;102948.13;4787179;29;119983;-88
2022/03/21 06:50:28;;;;;;;23.05;16.83;;;;;;;10.45;40.07;102960.69;4801723;29;119323;-87
2022/03/21 06:52:54;;;;;;;25.40;17.70;;;;;;;10.64;39.48;102983.38;4775654;29;122461;-88
2022/03/21 06:55:29;;;;;;;23.52;17.23;;;;;;;10.61;39.57;102964.94;4785692;29;122866;-90
2022/03/21 06:57:55;;;;;;;23.45;17.13;;;;;;;10.86;39.37;102995.09;4803743;29;120038;-88
2022/03/21 07:00:21;;;;;;;26.13;17.63;;;;;;;10.66;39.09;102956.34;4799834;29;120019;-89
2022/03/21 07:02:47;;;;;;;22.92;17.17;;;;;;;10.70;38.78;102959.84;4783166;29;120251;-87
2022/03/21 07:05:13;;;;;;;22.73;17.25;;;;;;;10.79;39.23;102976.69;4801086;29;122011;-89
2022/03/21 07:07:39;;;;;;;23.30;17.27;;;;;;;10.90;39.30;102991.19;4769677;29;123035;-90
2022/03/21 07:10:05;;;;;;;23.85;17.02;;;;;;;10.97;39.23;103006.84;4776212;29;119505;-88
2022/03/21 07:12:34;;;;;;;22.15;16.13;;;;;;;10.98;38.28;103000.19;4785815;29;122236;-88
2022/03/21 07:15:00;;;;;;;25.80;16.92;;;;;;;10.65;38.49;102955.56;4804849;29;123170;-88
2022/03/21 07:17:26;;;;;;;24.83;17.17;;;;;;;10.89;38.54;102997.06;4784759;29;119516;-88
2022/03/21 07:19:52;;;;;;;22.38;16.92;;;;;;;10.86;38.67;102989.59;4788986;29;122377;-90
2022/03/21 07:22:17;;;;;;;22.42;16.60;;;;;;;10.87;39.79;102997.44;4800513;29;119455;-90
2022/03/21 07:24:44;;;;;;;23.75;18.02;;;;;;;10.86;39.99;102992.34;4784480;29;122197;-89
2022/03/21 07:27:12;;;;;;;23.92;17.25;;;;;;;10.74;39.04;102974.34;4785892;29;122907;-87
2022/03/21 07:29:38;;;;;;;25.90;17.23;;;;;;;10.88;39.11;103001.75;4771480;29;120501;-87
2022/03/21 07:32:04;;;;;;;22.50;16.13;;;;;;;10.94;38.61;103011.19;4800822;29;120629;-90
2022/03/21 07:34:30;;;;;;;22.58;17.05;;;;;;;10.88;38.77;103004.50;4799459;29;122627;-88
2022/03/21 07:36:55;;;;;;;24.88;16.95;;;;;;;10.87;38.53;102996.66;4786414;29;119678;-90
2022/03/21 07:39:21;;;;;;;24.40;17.15;;;;;;;10.86;39.53;102993.13;4770640;29;121885;-88
2022/03/21 07:41:47;;;;;;;23.00;16.80;;;;;;;10.92;39.41;102999.81;4788389;29;122974;-87
2022/03/21 07:47:17;;;;;;;23.67;16.50;;;;;;;11.04;38.84;103013.09;4768951;29;122649;-89
2022/03/21 07:49:46;;;;;;;24.45;16.52;;;;;;;10.99;38.52;102997.03;4784788;29;119554;-87
2022/03/21 07:52:13;;;;;;;23.42;17.45;;;;;;;11.08;37.65;103007.59;4781185;29;121581;-89
2022/03/21 07:54:39;;;;;;;23.10;16.55;;;;;;;10.93;39.03;102982.16;4778946;29;123383;-89
2022/03/21 07:57:05;;;;;;;21.45;16.77;;;;;;;11.17;37.90;103009.94;4788121;29;119731;-89
2022/03/21 07:59:31;;;;;;;25.20;17.77;;;;;;;11.15;39.17;103001.31;4803859;29;122375;-91
2022/03/21 08:01:58;;;;;;;24.33;17.42;;;;;;;11.21;38.76;102983.22;4817405;29;120367;-88
2022/03/21 08:04:24;;;;;;;23.45;17.15;;;;;;;11.50;37.60;103011.34;4786535;29;119663;-89
2022/03/21 08:06:49;;;;;;;22.63;16.80;;;;;;;11.33;37.34;102986.28;4801888;29;122656;-88
2022/03/21 08:09:15;;;;;;;20.27;16.45;;;;;;;11.47;37.65;102993.69;4796911;29;119508;-90
2022/03/21 08:11:40;;;;;;;22.60;16.27;;;;;;;11.55;37.97;102997.19;4802552;29;119875;-88
2022/03/21 08:14:07;;;;;;;22.02;16.73;;;;;;;11.77;37.67;103030.84;4796176;29;123391;-89
2022/03/21 08:16:33;;;;;;;23.67;17.52;;;;;;;11.73;37.80;103013.59;4795291;29;119380;-88
2022/03/21 08:18:58;;;;;;;23.02;17.20;;;;;;;11.94;37.73;103027.25;4800230;29;119446;-88
2022/03/21 08:21:24;;;;;;;23.02;17.48;;;;;;;12.03;37.33;103016.56;4786042;29;120045;-90
2022/03/21 08:23:49;;;;;;;23.25;15.98;;;;;;;12.24;37.89;103013.66;4770275;29;119939;-88
2022/03/21 08:26:16;;;;;;;25.20;16.60;;;;;;;12.24;37.12;102996.38;4790185;29;122515;-88
2022/03/21 08:28:45;;;;;;;21.25;16.38;;;;;;;12.46;36.71;103019.00;4801234;29;119509;-89
2022/03/21 08:31:12;;;;;;;21.15;15.82;;;;;;;12.55;36.20;103014.59;4771920;29;122099;-89
2022/03/21 08:33:38;;;;;;;21.55;16.05;;;;;;;12.75;36.41;103014.00;4786121;29;122845;-88
2022/03/21 08:36:04;;;;;;;22.42;16.60;;;;;;;12.85;36.31;103010.38;4789658;29;120326;-88
2022/03/21 08:38:29;;;;;;;21.40;16.48;;;;;;;13.01;36.36;103018.88;4785871;29;122451;-88
2022/03/21 08:40:56;;;;;;;21.80;16.48;;;;;;;13.12;36.61;103022.28;4770629;29;123275;-88
2022/03/21 08:43:22;;;;;;;22.55;17.10;;;;;;;13.18;35.47;103031.66;4773026;29;119413;-88
2022/03/21 08:45:49;;;;;;;22.60;16.17;;;;;;;13.12;35.41;103016.75;4806005;29;122921;-89
2022/03/21 08:48:15;;;;;;;23.33;16.55;;;;;;;13.05;34.86;103013.31;4786454;29;120479;-88
2022/03/21 08:50:40;;;;;;;23.50;16.58;;;;;;;13.03;35.03;103005.47;4786223;29;122749;-88
2022/03/21 08:53:07;;;;;;;24.30;16.63;;;;;;;13.10;35.79;103004.59;4799672;29;123231;-88
2022/03/21 08:55:32;;;;;;;21.30;16.40;;;;;;;12.96;35.36;102961.44;4785636;29;119437;-89
2022/03/21 08:57:58;;;;;;;24.23;16.05;;;;;;;13.20;35.42;102978.91;4771821;29;122297;-87
2022/03/21 09:00:23;;;;;;;21.58;16.05;;;;;;;13.37;34.79;102994.44;4785736;29;123055;-89
2022/03/21 09:02:51;;;;;;;23.98;16.35;;;;;;;13.44;35.15;102991.56;4801347;29;119964;-88
2022/03/21 09:05:19;;;;;;;23.10;16.92;;;;;;;13.49;35.47;102988.38;4770785;29;123067;-89
2022/03/21 09:07:45;;;;;;;22.55;15.80;;;;;;;13.42;35.33;102954.59;4785352;29;123209;-88
2022/03/21 09:10:12;;;;;;;26.55;16.70;;;;;;;13.59;35.00;102959.09;4820741;29;119737;-89
2022/03/21 09:12:38;;;;;;;21.48;16.00;;;;;;;13.77;34.17;102984.44;4770235;29;123251;-88
2022/03/21 09:15:05;;;;;;;23.27;17.27;;;;;;;13.79;34.37;102976.53;4769587;29;120184;-89
2022/03/21 09:17:31;;;;;;;23.52;16.40;;;;;;;13.69;34.28;102960.13;4797983;29;121896;-89
2022/03/21 09:19:56;;;;;;;24.08;17.17;;;;;;;13.75;34.50;102972.25;4770105;29;123118;-88
2022/03/21 09:22:22;;;;;;;21.08;16.42;;;;;;;13.85;34.22;102985.09;4786008;29;120073;-89
2022/03/21 09:24:48;;;;;;;20.73;16.70;;;;;;;13.77;34.44;102980.91;4785008;29;122111;-88
2022/03/21 09:27:13;;;;;;;21.80;17.05;;;;;;;13.49;34.45;102951.75;4786254;29;123013;-88
2022/03/21 09:29:46;;;;;;;23.75;17.17;;;;;;;13.61;34.83;102977.97;4804689;29;119829;-89
2022/03/21 09:32:17;;;;;;;21.08;16.80;;;;;;;13.36;35.38;102954.28;4796055;29;122822;-90
2022/03/21 09:34:44;;;;;;;24.60;17.67;;;;;;;13.42;35.90;102960.88;4796862;29;119859;-90
2022/03/21 09:37:10;;;;;;;23.13;17.40;;;;;;;13.30;35.64;102935.88;4783377;29;122460;-86
2022/03/21 09:39:35;;;;;;;26.38;16.42;;;;;;;13.56;34.80;102975.69;4800203;29;120307;-90
2022/03/21 09:42:02;;;;;;;23.23;16.88;;;;;;;13.32;35.39;102937.00;4770917;29;119899;-90
2022/03/21 09:44:28;;;;;;;21.85;16.70;;;;;;;13.44;34.64;102952.97;4815292;29;119885;-88
2022/03/21 09:46:55;;;;;;;25.15;16.67;;;;;;;13.71;34.63;102996.34;4778909;29;123222;-90
2022/03/21 09:49:25;;;;;;;23.23;16.23;;;;;;;13.71;34.25;102999.88;4763824;29;120518;-88
2022/03/21 09:51:53;;;;;;;21.40;16.77;;;;;;;13.66;34.48;102999.56;4786041;29;122414;-89
2022/03/21 09:54:19;;;;;;;22.40;17.20;;;;;;;13.68;35.44;102999.94;4789589;29;121036;-88
2022/03/21 09:56:45;;;;;;;22.13;16.65;;;;;;;13.75;36.13;103011.66;4791347;29;121439;-88
2022/03/21 09:59:10;;;;;;;25.98;16.50;;;;;;;13.63;34.65;102981.88;4766184;29;122946;-87
2022/03/21 10:01:37;;;;;;;22.98;17.50;;;;;;;13.76;34.49;102993.91;4781870;29;119979;-89
2022/03/21 10:04:03;;;;;;;24.05;16.90;;;;;;;13.55;34.62;102971.38;4771453;29;122059;-87
2022/03/21 10:06:33;;;;;;;22.90;16.83;;;;;;;13.67;35.19;102987.34;4785187;29;123643;-88
2022/03/21 10:09:19;;;;;;;24.42;18.35;;;;;;;13.92;36.18;103012.56;4800062;29;119935;-89
2022/03/21 10:11:55;;;;;;;22.73;17.20;;;;;;;13.95;34.31;103016.47;4768928;29;121751;-89
2022/03/21 10:14:25;;;;;;;23.55;17.63;;;;;;;13.96;33.73;103010.56;4809948;29;123098;-88
2022/03/21 10:16:57;;;;;;;23.17;16.70;;;;;;;13.98;34.53;103016.44;4785044;29;120660;-88
2022/03/21 10:19:24;;;;;;;21.58;16.75;;;;;;;13.96;34.11;103010.56;4783936;29;123633;-89
2022/03/21 10:22:06;;;;;;;23.05;17.45;;;;;;;14.04;34.71;103014.78;4783000;29;120265;-88
2022/03/21 10:24:43;;;;;;;24.00;17.75;;;;;;;14.07;34.93;103011.16;4781569;29;122254;-89
2022/03/21 10:27:28;;;;;;;22.15;16.77;;;;;;;14.11;34.77;103009.13;4772334;29;123307;-89
2022/03/21 10:29:59;;;;;;;20.60;16.83;;;;;;;14.10;34.79;103004.81;4783424;29;119962;-89
2022/03/21 10:32:34;;;;;;;22.30;17.42;;;;;;;14.14;35.44;103000.00;4792766;29;123356;-89
2022/03/21 10:35:07;;;;;;;21.50;16.13;;;;;;;14.24;34.92;103006.56;4769894;29;123486;-89
2022/03/21 10:37:52;;;;;;;22.48;17.02;;;;;;;14.26;34.03;103006.94;4763637;29;120267;-89
2022/03/21 10:40:23;;;;;;;24.65;17.35;;;;;;;14.31;34.49;103019.47;4767500;29;123296;-89
2022/03/21 10:43:16;;;;;;;27.58;18.60;;;;;;;14.34;34.39;103002.06;4783475;29;119675;-88
2022/03/21 10:45:49;;;;;;;23.33;17.25;;;;;;;14.39;33.74;102988.56;4812694;29;120737;-88
2022/03/21 10:48:19;;;;;;;23.55;17.70;;;;;;;14.42;33.93;102992.44;4784903;29;122952;-89
2022/03/21 10:50:47;;;;;;;22.63;16.75;;;;;;;14.30;34.65;102979.25;4785015;29;120074;-90
2022/03/21 10:53:17;;;;;;;23.15;17.38;;;;;;;14.46;34.14;102995.97;4802133;29;120094;-90
2022/03/21 10:56:10;;;;;;;24.90;17.38;;;;;;;14.27;34.84;102961.56;4785129;29;123085;-88
2022/03/21 10:58:47;;;;;;;23.40;18.33;;;;;;;14.41;35.27;102980.63;4786096;29;119949;-92
2022/03/21 11:01:27;;;;;;;21.27;17.15;;;;;;;14.57;34.32;102988.28;4795487;29;120275;-88
2022/03/21 11:03:59;;;;;;;22.42;17.27;;;;;;;14.59;34.86;102980.34;4784760;29;120459;-88
2022/03/21 11:06:29;;;;;;;23.52;17.52;;;;;;;14.71;35.78;102988.03;4800058;29;120797;-90
2022/03/21 11:08:55;;;;;;;23.65;17.38;;;;;;;14.67;35.04;102969.97;4769286;29;122553;-89
2022/03/21 11:11:22;;;;;;;25.00;17.95;;;;;;;14.76;34.38;102966.63;4766870;29;120963;-90
2022/03/21 11:13:50;;;;;;;25.05;17.25;;;;;;;14.89;34.97;102979.38;4774763;29;122482;-89
2022/03/21 11:16:21;;;;;;;22.98;17.13;;;;;;;14.74;34.93;102939.44;4793229;29;120603;-89
2022/03/21 11:18:48;;;;;;;22.17;17.38;;;;;;;14.94;34.14;102962.31;4795492;29;119707;-90
2022/03/21 11:21:15;;;;;;;23.67;17.25;;;;;;;15.18;33.80;102987.91;4766098;29;122188;-89
2022/03/21 11:23:42;;;;;;;23.35;17.48;;;;;;;14.74;33.47;102914.56;4777897;29;119578;-89
2022/03/21 11:26:19;;;;;;;24.33;18.17;;;;;;;15.24;33.98;102988.94;4790783;29;121627;-88
2022/03/21 11:28:50;;;;;;;22.38;18.02;;;;;;;15.26;34.87;102989.28;4783201;29;122870;-91
2022/03/21 11:31:32;;;;;;;21.70;17.55;;;;;;;15.20;33.86;102979.94;4801295;29;119954;-89
2022/03/21 11:34:20;;;;;;;25.98;18.48;;;;;;;15.23;33.76;102987.38;4786297;29;124148;-90
2022/03/21 11:36:55;;;;;;;24.20;18.05;;;;;;;15.20;34.01;102985.47;4791187;29;122445;-89
2022/03/21 11:39:22;;;;;;;26.98;18.33;;;;;;;15.15;33.44;102971.38;4786865;29;119667;-90
2022/03/21 11:42:06;;;;;;;24.20;17.80;;;;;;;15.18;33.13;102965.78;4764246;29;122173;-91
2022/03/21 11:44:31;;;;;;;24.40;16.73;;;;;;;15.17;33.80;102969.75;4790914;29;120395;-88
2022/03/21 11:47:24;;;;;;;24.10;18.10;;;;;;;15.26;34.21;102975.47;4802535;29;122526;-88
2022/03/21 11:49:51;;;;;;;25.77;18.55;;;;;;;15.12;34.11;102950.09;4774699;29;123238;-90
2022/03/21 11:52:17;;;;;;;22.60;17.95;;;;;;;15.23;34.48;102970.81;4782745;29;119528;-88
2022/03/21 11:54:45;;;;;;;25.80;18.02;;;;;;;15.29;33.49;102976.59;4791924;29;122303;-89
2022/03/21 11:57:24;;;;;;;22.90;18.20;;;;;;;15.36;33.88;102971.69;4783430;29;123042;-89
2022/03/21 11:59:52;;;;;;;22.52;18.45;;;;;;;15.40;33.69;102968.09;4782185;29;122081;-88
2022/03/21 12:02:17;;;;;;;24.55;18.85;;;;;;;15.44;33.60;102969.56;4767880;29;122122;-89
2022/03/21 12:04:57;;;;;;;23.90;18.17;;;;;;;15.46;33.54;102969.91;4784245;29;123971;-89
2022/03/21 12:07:27;;;;;;;22.25;18.92;;;;;;;15.39;33.12;102958.25;4806221;29;119684;-88
2022/03/21 12:09:54;;;;;;;24.52;18.52;;;;;;;15.47;33.86;102965.16;4768003;29;123206;-88
2022/03/21 12:12:22;;;;;;;25.95;19.10;;;;;;;15.32;33.97;102943.34;4787980;29;119505;-88
2022/03/21 12:14:54;;;;;;;23.38;18.48;;;;;;;15.52;33.54;102964.66;4772582;29;122094;-89
2022/03/21 12:17:23;;;;;;;25.25;18.40;;;;;;;15.52;33.05;102961.88;4787396;29;123681;-89
2022/03/21 12:19:48;;;;;;;23.27;17.60;;;;;;;15.55;33.36;102967.31;4784903;29;119736;-88
2022/03/21 12:22:29;;;;;;;24.70;18.65;;;;;;;15.57;33.85;102961.38;4788106;29;119854;-88
2022/03/21 12:25:11;;;;;;;26.05;18.65;;;;;;;15.60;33.41;102955.00;4771457;29;123194;-89
2022/03/21 12:27:39;;;;;;;24.38;18.65;;;;;;;15.64;33.71;102953.72;4789967;29;119876;-89
2022/03/21 12:30:27;;;;;;;25.88;18.17;;;;;;;15.66;33.51;102953.28;4775305;29;122531;-88
2022/03/21 12:32:54;;;;;;;26.40;18.13;;;;;;;15.64;32.71;102947.41;4802601;29;119595;-90
2022/03/21 12:35:32;;;;;;;25.45;19.00;;;;;;;15.73;34.08;102949.56;4796072;29;122676;-89
2022/03/21 12:38:05;;;;;;;24.67;19.40;;;;;;;15.72;34.00;102951.56;4771313;29;123589;-88
2022/03/21 12:40:33;;;;;;;26.33;19.05;;;;;;;15.78;33.06;102947.06;4786462;29;120124;-89
2022/03/21 12:43:01;;;;;;;26.77;19.42;;;;;;;15.85;33.44;102946.91;4771367;29;122544;-89
2022/03/21 12:45:31;;;;;;;24.10;18.70;;;;;;;15.80;33.70;102930.81;4786927;29;123228;-89
2022/03/21 12:48:03;;;;;;;23.55;18.15;;;;;;;15.88;33.84;102928.66;4787617;29;119470;-88
2022/03/21 12:50:29;;;;;;;23.92;18.27;;;;;;;15.92;33.94;102932.13;4797683;29;122412;-88
2022/03/21 12:52:57;;;;;;;21.92;18.30;;;;;;;15.94;32.71;102924.94;4792788;29;123486;-89
2022/03/21 12:55:27;;;;;;;45.47;19.90;;;;;;;16.14;34.41;102954.50;4802701;29;119441;-88
2022/03/21 12:58:04;;;;;;;30.80;20.02;;;;;;;16.19;34.16;102953.97;4771555;29;123560;-89
2022/03/21 13:00:37;;;;;;;27.67;19.58;;;;;;;16.24;34.03;102947.91;4785982;29;120541;-89
2022/03/21 13:03:07;;;;;;;24.85;19.92;;;;;;;16.27;33.92;102945.03;4800171;29;122735;-89
2022/03/21 13:11:23;;;;;;;28.77;18.98;;;;;;;16.32;33.07;102940.19;4787413;29;121761;-89
2022/03/21 13:13:53;;;;;;;24.47;19.70;;;;;;;16.34;33.14;102938.56;4786385;29;120603;-88
2022/03/21 13:16:24;;;;;;;25.38;19.95;;;;;;;16.36;32.80;102940.91;4785854;29;123247;-89
2022/03/21 13:18:52;;;;;;;24.98;18.50;;;;;;;16.41;33.57;102938.38;4762134;29;123764;-88
2022/03/21 13:21:19;;;;;;;24.33;19.08;;;;;;;16.44;33.82;102933.94;4785841;29;119944;-88
2022/03/21 13:23:50;;;;;;;24.90;19.52;;;;;;;16.31;32.52;102917.25;4797758;29;122339;-88
2022/03/21 13:26:21;;;;;;;24.85;19.20;;;;;;;16.45;33.89;102941.03;4798188;29;120745;-89
2022/03/21 13:28:48;;;;;;;27.30;19.20;;;;;;;16.26;33.46;102915.00;4796613;29;120244;-88
2022/03/21 13:31:20;;;;;;;25.23;19.13;;;;;;;16.44;34.31;102940.25;4770874;29;122125;-89
2022/03/21 13:34:07;;;;;;;26.05;19.98;;;;;;;16.40;33.13;102936.81;4817226;29;120334;-89
2022/03/21 13:36:41;;;;;;;26.73;19.20;;;;;;;16.39;34.24;102934.47;4772596;29;119880;-89
2022/03/21 13:39:07;;;;;;;26.30;19.75;;;;;;;16.37;33.14;102932.16;4783454;29;123252;-89
2022/03/21 13:41:33;;;;;;;24.58;20.65;;;;;;;16.37;33.57;102931.38;4785592;29;120337;-89
2022/03/21 13:44:04;;;;;;;26.95;19.50;;;;;;;16.25;33.70;102907.94;4816437;29;122513;-88
2022/03/21 13:46:30;;;;;;;26.85;20.75;;;;;;;16.30;33.60;102915.69;4778283;29;122810;-88
2022/03/21 13:48:56;;;;;;;26.17;19.77;;;;;;;16.24;33.65;102914.69;4785320;29;119662;-89
2022/03/21 13:51:24;;;;;;;24.05;20.05;;;;;;;16.12;33.31;102899.56;4790507;29;119528;-88
2022/03/21 13:54:10;;;;;;;25.00;19.67;;;;;;;16.32;33.11;102923.56;4775248;29;123671;-88
2022/03/21 13:56:37;;;;;;;;;;;;;;;16.27;33.29;102927.66;4769814;29;119719;-88
2022/03/21 13:59:15;;;;;;;26.80;19.80;;;;;;;16.32;34.02;102924.34;4803616;29;121801;-88
2022/03/21 14:01:44;;;;;;;24.88;19.85;;;;;;;16.24;33.97;102911.91;4769146;29;119747;-87
2022/03/21 14:04:25;;;;;;;26.35;19.88;;;;;;;16.27;33.34;102922.88;4767532;29;122338;-86
2022/03/21 14:07:05;;;;;;;26.42;20.17;;;;;;;16.23;33.75;102915.91;4800869;29;122781;-88
2022/03/21 14:09:31;;;;;;;27.92;20.38;;;;;;;16.21;33.31;102918.31;4785018;29;119936;-88